Terminal Aerodrome Forecast
Issued by NWS

Home | Current Version | Previous Version | Text Only | Print | Product List | Glossary On
Versions: 1 2 3 4 5 6 7 8 9 10 11 12 13 14 15 16 17 18 19 20 21
000
FTUS44 KBMX 311100
TAFANB
TAF
KANB 311121Z 3112/0112 30003KT P6SM SKC
     FM311800 30008KT P6SM VCSH SCT250
     FM312000 31015G25KT P6SM VCSH OVC040
     FM010300 33014KT P6SM SCT040=

USA.gov is the U.S. government's official web portal to all federal, state and local government web resources and services.